aviador You're here:

CYMO Decoded Metar

MOOSONEE in ON, CANADA
Report Time2017-09-20 12:00:00
UTC Time2017-09-20 13:02:41
Flight Rules vfr VFR
Wind090° at 06 kt
W.Decomp.*RWY 14: 4.8 kt HW 3.6 kt LCW
RWY 06: 4.4 kt HW 4.1 kt RCW
W.Rank090° ranks 23
Current wind is below 090° avg. (7.3)
Visibility9999 m
Phenomena:N/A
Clouds:N/A
Expected CloudBase > 400 ft AGL from Temp-Dew spread
CeilingNone
Temp10°C (ISA -5)
Dew Point09°C (94% RH)
AAT7.6°C
QNH1021 hPa
Density Alt-673 ft
Elevation33 ft
Report Wrong Elevation
Raw Report
CYMO 201200Z AUTO 09006KT 9SM CLR 10/09 A3014 RMK SLP207=

Extra information for CYMO:More info

Metar Taf Metar & Taf Last 4 Metars F.Rules Stats Wind Profile Meteogram Temp Stats Airport Information Weather charts Add Link Nearby VenuesMetar ALERT Operation Metar Decoded Social comments